Time;durP1;ratioP1;P1;durP2;ratioP2;P2;SDS_P1;SDS_P2;PMS_P1;PMS_P2;Temp;Humidity;BMP_temperature;BMP_pressure;BME280_temperature;BME280_humidity;BME280_pressure;Samples;Min_cycle;Max_cycle;Signal;HPM_P1;HPM_P2
2022/05/30 00:00:21;;;;;;;2.67;1.27;;;18.50;64.60;;;;;;10416083;28;20596;-55
2022/05/30 00:05:24;;;;;;;3.60;1.10;;;18.50;64.60;;;;;;10431630;28;20088;-55
2022/05/30 00:10:26;;;;;;;1.48;0.63;;;18.50;64.60;;;;;;10431228;28;20033;-55
2022/05/30 00:15:29;;;;;;;2.17;0.85;;;18.50;64.50;;;;;;10415431;28;20026;-55
2022/05/30 00:20:30;;;;;;;2.20;0.82;;;18.50;64.50;;;;;;10416935;28;20030;-56
2022/05/30 00:25:31;;;;;;;2.75;0.80;;;18.50;64.50;;;;;;10430691;28;20026;-56
2022/05/30 00:30:32;;;;;;;1.42;0.63;;;18.50;64.50;;;;;;10430302;28;20037;-55
2022/05/30 00:35:32;;;;;;;2.28;0.80;;;18.50;64.50;;;;;;10414927;28;20041;-55
2022/05/30 00:40:35;;;;;;;2.05;0.95;;;18.40;64.40;;;;;;10413441;28;20397;-55
2022/05/30 00:45:36;;;;;;;1.88;0.80;;;18.50;64.40;;;;;;10413241;28;20037;-55
2022/05/30 00:50:38;;;;;;;1.80;0.93;;;18.40;64.30;;;;;;10414454;28;20065;-55
2022/05/30 00:55:41;;;;;;;1.35;0.70;;;18.50;64.30;;;;;;10383356;28;20133;-55
2022/05/30 01:00:42;;;;;;;1.20;0.73;;;18.50;64.30;;;;;;10412303;28;20029;-55
2022/05/30 01:11:02;;;;;;;1.88;0.98;;;18.40;64.30;;;;;;10412555;28;20045;-56
2022/05/30 01:16:03;;;;;;;1.08;0.60;;;18.40;64.30;;;;;;10401566;28;20025;-55
2022/05/30 01:21:39;;;;;;;2.17;0.80;;;18.40;64.30;;;;;;10415084;28;20363;-56
2022/05/30 01:27:19;;;;;;;2.53;1.08;;;18.40;64.20;;;;;;10412193;28;20421;-55
2022/05/30 01:32:23;;;;;;;3.15;0.75;;;18.40;64.80;;;;;;10426579;28;20362;-56
2022/05/30 01:37:24;;;;;;;1.60;0.73;;;18.40;64.20;;;;;;10412935;28;20041;-55
2022/05/30 01:42:26;;;;;;;2.65;0.70;;;18.30;64.00;;;;;;10412543;28;20515;-56
2022/05/30 01:47:26;;;;;;;1.92;1.10;;;18.40;64.10;;;;;;10411315;28;20168;-56
2022/05/30 01:52:28;;;;;;;1.65;0.57;;;18.30;64.00;;;;;;10427556;28;20087;-56
2022/05/30 01:57:29;;;;;;;2.38;1.00;;;18.30;64.00;;;;;;10411407;28;20490;-54
2022/05/30 02:02:30;;;;;;;4.35;1.05;;;18.30;63.90;;;;;;10410767;28;20064;-55
2022/05/30 02:07:31;;;;;;;1.05;0.63;;;18.30;64.50;;;;;;10411354;28;20029;-55
2022/05/30 02:12:31;;;;;;;1.60;0.95;;;18.30;63.90;;;;;;10415997;28;20394;-55
2022/05/30 02:17:33;;;;;;;1.63;0.57;;;18.30;63.80;;;;;;10420678;28;20036;-56
2022/05/30 02:22:34;;;;;;;1.38;0.47;;;18.30;63.90;;;;;;10419784;28;20029;-56
2022/05/30 02:27:34;;;;;;;2.10;0.80;;;18.30;63.80;;;;;;10420157;28;20033;-56
2022/05/30 02:32:35;;;;;;;2.58;1.00;;;18.30;63.90;;;;;;10419829;28;20442;-55
2022/05/30 02:37:36;;;;;;;3.33;0.80;;;18.30;63.80;;;;;;10432856;28;20113;-55
2022/05/30 02:42:36;;;;;;;1.45;0.70;;;18.30;63.70;;;;;;10419366;28;20033;-55
2022/05/30 02:47:37;;;;;;;2.65;0.70;;;18.30;63.70;;;;;;10418916;28;20428;-56
2022/05/30 02:52:38;;;;;;;1.73;1.10;;;18.30;63.70;;;;;;10434342;28;20109;-56
2022/05/30 02:57:38;;;;;;;1.15;0.73;;;18.20;64.10;;;;;;10418827;28;20112;-55
2022/05/30 03:02:39;;;;;;;2.08;0.60;;;18.20;63.60;;;;;;10418526;28;20064;-56
2022/05/30 03:07:40;;;;;;;2.67;0.75;;;18.20;63.50;;;;;;10417300;28;20079;-55
2022/05/30 03:12:40;;;;;;;1.00;0.50;;;18.20;63.60;;;;;;10402934;28;20053;-55
2022/05/30 03:17:41;;;;;;;1.83;1.02;;;18.20;63.50;;;;;;10419658;28;20053;-55
2022/05/30 03:22:42;;;;;;;1.75;0.65;;;18.20;63.50;;;;;;10399990;28;20128;-56
2022/05/30 03:27:43;;;;;;;2.90;0.88;;;18.20;63.50;;;;;;10414011;28;20075;-55
2022/05/30 03:32:44;;;;;;;1.20;0.60;;;18.20;63.50;;;;;;10414015;28;20099;-55
2022/05/30 03:37:45;;;;;;;1.40;0.82;;;18.20;63.40;;;;;;10417389;28;20106;-55
2022/05/30 03:42:46;;;;;;;1.58;0.60;;;18.10;63.40;;;;;;10430457;28;20079;-55
2022/05/30 03:47:48;;;;;;;2.03;0.70;;;18.20;63.50;;;;;;10416975;28;20029;-56
2022/05/30 03:52:52;;;;;;;3.20;1.10;;;18.10;63.50;;;;;;10432054;28;20502;-55
2022/05/30 03:57:52;;;;;;;1.75;0.77;;;18.10;63.50;;;;;;10415494;28;20485;-55
2022/05/30 04:02:53;;;;;;;1.63;0.57;;;18.10;63.30;;;;;;10413986;28;20094;-56
2022/05/30 04:07:54;;;;;;;1.38;0.70;;;18.10;63.20;;;;;;10415368;28;20091;-56
2022/05/30 04:13:07;;;;;;;2.28;0.88;;;18.10;63.30;;;;;;10413614;28;20112;-55
2022/05/30 04:18:08;;;;;;;1.23;0.68;;;18.10;63.30;;;;;;10420870;28;20029;-56
2022/05/30 04:23:09;;;;;;;1.48;0.63;;;18.10;63.30;;;;;;10415078;28;20106;-56
2022/05/30 04:28:09;;;;;;;2.33;0.60;;;18.10;63.20;;;;;;10414410;28;20502;-55
2022/05/30 04:33:10;;;;;;;0.90;0.60;;;18.10;63.30;;;;;;10412040;28;20448;-55
2022/05/30 04:38:11;;;;;;;1.50;0.70;;;18.00;63.20;;;;;;10413748;28;20032;-55
2022/05/30 04:43:11;;;;;;;1.55;0.70;;;18.10;63.30;;;;;;10413956;28;20116;-56
2022/05/30 04:48:12;;;;;;;1.27;0.60;;;18.00;63.20;;;;;;10414271;28;20068;-55
2022/05/30 04:53:13;;;;;;;5.60;1.23;;;18.00;63.10;;;;;;10413967;28;20030;-54
2022/05/30 04:58:14;;;;;;;31.95;2.35;;;18.00;63.70;;;;;;10407966;28;20095;-59
2022/05/30 05:03:14;;;;;;;2.75;0.90;;;18.20;63.70;;;;;;10414026;28;20473;-58
2022/05/30 05:08:15;;;;;;;6.18;0.90;;;18.20;64.00;;;;;;10413717;28;20041;-59
2022/05/30 05:13:16;;;;;;;6.75;1.42;;;18.10;65.00;;;;;;10400285;28;20479;-61
2022/05/30 05:18:16;;;;;;;6.18;1.30;;;18.20;65.60;;;;;;10415140;28;20055;-62
2022/05/30 05:23:17;;;;;;;8.73;1.10;;;18.20;65.00;;;;;;10413660;28;20091;-61
2022/05/30 05:28:18;;;;;;;12.75;1.65;;;18.20;65.30;;;;;;10413526;28;20021;-66
2022/05/30 05:33:18;;;;;;;10.52;2.22;;;18.20;65.50;;;;;;10412415;28;20055;-62
2022/05/30 05:38:19;;;;;;;14.63;2.50;;;18.10;65.50;;;;;;10407852;28;20409;-64
2022/05/30 05:43:20;;;;;;;13.60;1.75;;;18.10;65.50;;;;;;10406294;28;20033;-65
2022/05/30 05:48:21;;;;;;;9.65;1.50;;;18.10;65.50;;;;;;10417689;28;20072;-62
2022/05/30 05:53:21;;;;;;;13.30;2.58;;;18.00;65.40;;;;;;10420775;28;20034;-61
2022/05/30 05:58:22;;;;;;;10.48;2.30;;;18.10;65.30;;;;;;10412758;28;20052;-61
2022/05/30 06:03:23;;;;;;;14.07;2.17;;;18.00;65.40;;;;;;10415713;28;20067;-62
2022/05/30 06:08:23;;;;;;;11.77;2.63;;;18.00;65.80;;;;;;10426819;28;20093;-63
2022/05/30 06:13:25;;;;;;;9.77;2.70;;;18.00;66.10;;;;;;10405817;28;20442;-61
2022/05/30 06:18:26;;;;;;;8.27;1.90;;;18.00;65.80;;;;;;10418168;28;20036;-62
2022/05/30 06:23:27;;;;;;;14.02;2.25;;;18.00;65.70;;;;;;10415489;28;20036;-62
2022/05/30 06:28:31;;;;;;;8.50;1.20;;;17.90;65.50;;;;;;10415580;28;20112;-62
2022/05/30 06:33:32;;;;;;;7.78;1.98;;;18.00;65.60;;;;;;10416579;28;20041;-63
2022/05/30 06:38:33;;;;;;;10.35;1.77;;;17.90;65.40;;;;;;10417801;28;20021;-62
2022/05/30 06:43:34;;;;;;;6.00;1.50;;;17.90;65.30;;;;;;10418665;28;20037;-62
2022/05/30 06:48:35;;;;;;;7.47;1.50;;;18.00;65.30;;;;;;10418802;28;20037;-63
2022/05/30 06:53:36;;;;;;;4.65;1.67;;;17.90;65.20;;;;;;10434225;28;20547;-62
2022/05/30 06:58:37;;;;;;;5.18;1.08;;;18.00;65.30;;;;;;10432659;28;20029;-62
2022/05/30 07:03:39;;;;;;;4.43;1.00;;;17.90;65.10;;;;;;10433024;28;20356;-62
2022/05/30 07:08:43;;;;;;;2.72;1.70;;;17.90;65.10;;;;;;10418566;28;20026;-63
2022/05/30 07:13:45;;;;;;;6.13;1.40;;;17.90;64.90;;;;;;10403044;28;20021;-62
2022/05/30 07:18:46;;;;;;;6.38;2.10;;;17.90;65.10;;;;;;10404547;28;20036;-62
2022/05/30 07:23:46;;;;;;;3.92;1.30;;;17.90;65.00;;;;;;10415888;28;20405;-62
2022/05/30 07:28:48;;;;;;;4.93;1.35;;;17.90;65.00;;;;;;10432628;28;20113;-62
2022/05/30 07:33:49;;;;;;;5.57;1.38;;;18.00;65.00;;;;;;10431861;28;20096;-62
2022/05/30 07:38:51;;;;;;;4.65;1.27;;;17.90;64.80;;;;;;10431292;28;20033;-62
2022/05/30 07:43:52;;;;;;;11.25;1.58;;;18.00;64.90;;;;;;10419777;28;20029;-62
2022/05/30 07:48:53;;;;;;;4.88;1.27;;;18.00;64.80;;;;;;10419793;28;20112;-62
2022/05/30 07:53:54;;;;;;;26.75;3.50;;;18.00;64.70;;;;;;10429116;28;20104;-61
2022/05/30 07:58:55;;;;;;;14.50;2.15;;;18.00;65.10;;;;;;10408947;28;20684;-62
2022/05/30 08:03:56;;;;;;;13.30;2.15;;;18.00;65.30;;;;;;10402533;28;20059;-62
2022/05/30 08:08:57;;;;;;;7.07;1.70;;;18.00;65.30;;;;;;10413866;28;20052;-62
2022/05/30 08:13:57;;;;;;;9.32;1.55;;;18.00;65.20;;;;;;10412320;28;20033;-62
2022/05/30 08:18:58;;;;;;;18.63;2.50;;;18.00;65.20;;;;;;10413299;28;20061;-62
2022/05/30 08:23:59;;;;;;;8.95;2.28;;;18.10;65.20;;;;;;10413998;28;20362;-62
2022/05/30 08:29:00;;;;;;;12.45;2.75;;;18.10;65.00;;;;;;10429708;28;20477;-62
2022/05/30 08:34:00;;;;;;;10.00;2.40;;;18.20;65.10;;;;;;10399755;28;20077;-62
2022/05/30 08:44:20;;;;;;;18.88;3.13;;;18.10;62.90;;;;;;10413516;28;20390;-61
2022/05/30 08:49:35;;;;;;;6.60;1.65;;;18.00;60.80;;;;;;10413677;28;20112;-61
2022/05/30 08:55:01;;;;;;;17.38;2.97;;;17.90;59.00;;;;;;10428727;28;20037;-61
2022/05/30 09:00:27;;;;;;;7.75;1.60;;;17.90;57.60;;;;;;10428627;28;20021;-61
2022/05/30 09:05:47;;;;;;;7.50;1.73;;;17.90;58.10;;;;;;10413445;28;20037;-61
2022/05/30 09:10:58;;;;;;;9.05;2.00;;;17.80;58.70;;;;;;10426897;28;20030;-61
2022/05/30 09:16:24;;;;;;;4.15;1.17;;;17.80;57.80;;;;;;10401673;28;20124;-61
2022/05/30 09:21:29;;;;;;;6.53;2.03;;;17.80;58.50;;;;;;10413003;28;20163;-60
2022/05/30 09:26:37;;;;;;;7.93;1.80;;;17.80;58.80;;;;;;10428640;28;20037;-61
2022/05/30 09:32:11;;;;;;;21.55;3.03;;;17.80;59.20;;;;;;10421563;28;20037;-61
2022/05/30 09:37:34;;;;;;;9.23;2.05;;;17.80;59.60;;;;;;10411450;28;20132;-60
2022/05/30 09:42:47;;;;;;;14.80;2.75;;;17.80;60.20;;;;;;10411100;28;20029;-60
2022/05/30 09:48:06;;;;;;;12.93;2.60;;;17.80;60.50;;;;;;10411083;28;20021;-61
2022/05/30 09:53:07;;;;;;;6.32;1.67;;;17.80;60.70;;;;;;10412286;28;20034;-61
2022/05/30 09:58:07;;;;;;;13.80;2.97;;;17.80;60.90;;;;;;10411039;28;20538;-61
2022/05/30 10:03:26;;;;;;;16.80;2.50;;;17.80;61.30;;;;;;10411298;28;20428;-62
2022/05/30 10:08:30;;;;;;;8.47;1.67;;;17.80;61.40;;;;;;10411880;28;20033;-62
2022/05/30 10:13:41;;;;;;;11.25;2.35;;;17.80;61.60;;;;;;10398441;28;20091;-62
2022/05/30 10:18:55;;;;;;;9.57;1.90;;;17.80;62.10;;;;;;10428471;28;20022;-62
2022/05/30 10:30:29;;;;;;;20.05;3.38;;;17.90;62.30;;;;;;10411635;28;20037;-61
2022/05/30 10:36:09;;;;;;;11.45;2.35;;;17.90;62.60;;;;;;10418874;28;20050;-63
2022/05/30 10:41:26;;;;;;;31.13;3.90;;;18.00;62.70;;;;;;10431234;28;20033;-63
2022/05/30 10:47:18;;;;;;;10.40;2.30;;;18.00;62.50;;;;;;10434267;28;20029;-62
2022/05/30 10:52:39;;;;;;;19.75;4.38;;;18.00;62.70;;;;;;10432067;28;20033;-61
2022/05/30 10:57:48;;;;;;;17.80;3.50;;;18.00;62.60;;;;;;10433098;28;20054;-61
2022/05/30 11:03:25;;;;;;;18.67;3.20;;;18.00;63.40;;;;;;10418308;28;20033;-61
2022/05/30 11:08:49;;;;;;;7.55;2.53;;;18.00;63.90;;;;;;10416611;28;20060;-60
2022/05/30 11:14:00;;;;;;;10.80;2.45;;;18.00;63.80;;;;;;10430980;28;20132;-60
2022/05/30 11:19:12;;;;;;;11.35;2.63;;;18.00;63.90;;;;;;10419174;28;20025;-62
2022/05/30 11:24:15;;;;;;;10.35;2.10;;;18.10;64.10;;;;;;10405130;28;20034;-62
2022/05/30 11:29:47;;;;;;;7.95;1.60;;;18.00;64.20;;;;;;10423298;28;20440;-62
2022/05/30 11:35:13;;;;;;;11.52;1.73;;;18.10;63.90;;;;;;10397296;28;20103;-59
2022/05/30 11:40:35;;;;;;;16.30;1.92;;;18.20;63.20;;;;;;10416890;28;20029;-57
2022/05/30 11:45:55;;;;;;;9.60;2.05;;;18.20;63.10;;;;;;10415874;28;20025;-60
2022/05/30 11:51:19;;;;;;;11.50;2.38;;;18.10;63.50;;;;;;10431360;28;20076;-60
2022/05/30 11:57:05;;;;;;;7.80;2.63;;;18.10;63.60;;;;;;10430302;28;20029;-60
2022/05/30 12:02:16;;;;;;;10.13;2.58;;;18.10;63.50;;;;;;10415706;28;20033;-60
2022/05/30 12:07:34;;;;;;;12.88;2.65;;;18.10;63.40;;;;;;10430680;28;20029;-61
2022/05/30 12:12:56;;;;;;;13.70;2.17;;;18.10;63.20;;;;;;10415124;28;20037;-60
2022/05/30 12:24:15;;;;;;;9.23;1.90;;;18.30;62.90;;;;;;10415244;28;20025;-61
2022/05/30 12:29:38;;;;;;;5.22;1.80;;;18.30;62.70;;;;;;10414867;28;20462;-61
2022/05/30 12:34:57;;;;;;;11.23;1.85;;;18.30;62.90;;;;;;10414372;28;20061;-61
2022/05/30 12:39:59;;;;;;;5.47;1.30;;;18.30;63.00;;;;;;10414288;28;20041;-61
2022/05/30 12:45:34;;;;;;;5.60;1.20;;;18.20;62.90;;;;;;10411586;28;20037;-60
2022/05/30 12:50:34;;;;;;;11.38;2.38;;;18.30;63.00;;;;;;10411088;28;20746;-49
2022/05/30 12:55:44;;;;;;;11.00;2.55;;;18.40;63.30;;;;;;10412220;28;20057;-50
2022/05/30 13:00:49;;;;;;;;;;;18.50;62.80;;;;;;10412017;28;20075;-48
2022/05/30 13:06:19;;;;;;;7.25;1.67;;;18.60;61.80;;;;;;10413721;28;19909;-52
2022/05/30 13:11:32;;;;;;;5.30;1.48;;;18.90;60.00;;;;;;10409595;28;20026;-50
2022/05/30 13:16:43;;;;;;;9.30;2.50;;;19.10;58.70;;;;;;10404812;28;20080;-49
2022/05/30 13:21:48;;;;;;;6.50;1.85;;;19.20;57.90;;;;;;10414786;28;20398;-54
2022/05/30 13:26:50;;;;;;;8.35;2.22;;;19.20;58.80;;;;;;10411652;28;20041;-50
2022/05/30 13:31:51;;;;;;;43.63;27.55;;;19.20;58.80;;;;;;10412470;28;20044;-49
2022/05/30 13:36:53;;;;;;;16.27;6.70;;;19.40;56.20;;;;;;10410384;28;20046;-48
2022/05/30 13:41:56;;;;;;;14.23;7.40;;;19.40;56.10;;;;;;10411325;28;20060;-49
2022/05/30 13:47:07;;;;;;;20.98;6.80;;;19.30;56.60;;;;;;10412063;28;20030;-48
2022/05/30 13:52:32;;;;;;;11.80;6.05;;;19.50;57.80;;;;;;10410530;28;20125;-49
2022/05/30 13:57:33;;;;;;;15.43;7.20;;;19.40;60.40;;;;;;10411747;28;20489;-47
2022/05/30 14:02:40;;;;;;;23.73;17.30;;;19.30;61.40;;;;;;10412209;28;20055;-47
2022/05/30 14:07:48;;;;;;;13.55;10.00;;;19.40;58.20;;;;;;10414506;28;20091;-48
2022/05/30 14:12:49;;;;;;;15.80;9.80;;;19.20;58.30;;;;;;10405126;28;20046;-46
2022/05/30 14:17:52;;;;;;;10.00;7.15;;;19.00;57.60;;;;;;10421510;28;20397;-47
2022/05/30 14:23:00;;;;;;;8.20;5.82;;;18.80;56.40;;;;;;10419735;28;20116;-45
2022/05/30 14:28:08;;;;;;;7.40;4.20;;;18.70;56.30;;;;;;10434352;28;20064;-47
2022/05/30 14:33:13;;;;;;;5.40;2.97;;;18.60;55.80;;;;;;10431972;28;20056;-47
2022/05/30 14:38:43;;;;;;;5.05;2.75;;;18.60;55.20;;;;;;10415813;28;20041;-48
2022/05/30 14:43:51;;;;;;;12.20;3.17;;;18.50;54.50;;;;;;10418544;28;20153;-50
2022/05/30 14:48:54;;;;;;;11.65;2.55;;;18.50;53.70;;;;;;10397495;28;20412;-47
2022/05/30 14:54:15;;;;;;;15.77;2.95;;;18.50;53.20;;;;;;10399907;28;20490;-50
2022/05/30 14:59:39;;;;;;;13.27;3.10;;;18.60;53.30;;;;;;10396793;28;20527;-46
2022/05/30 15:04:39;;;;;;;16.60;4.43;;;18.70;53.70;;;;;;10414211;28;20021;-48
2022/05/30 15:09:49;;;;;;;9.32;2.08;;;18.80;54.00;;;;;;10393398;28;20474;-47
2022/05/30 15:14:50;;;;;;;7.78;1.88;;;18.90;54.30;;;;;;10397814;28;20033;-46
2022/05/30 15:19:53;;;;;;;17.67;4.07;;;18.90;54.60;;;;;;10417608;28;20040;-48
2022/05/30 15:24:59;;;;;;;8.85;3.53;;;18.80;55.40;;;;;;10417040;28;20036;-46
2022/05/30 15:29:59;;;;;;;7.20;3.08;;;18.90;56.10;;;;;;10416629;28;20659;-46
2022/05/30 15:35:01;;;;;;;8.38;2.30;;;18.80;55.40;;;;;;10415766;28;20175;-46
2022/05/30 15:40:02;;;;;;;9.13;1.95;;;18.70;55.00;;;;;;10416180;28;20516;-48
2022/05/30 15:45:04;;;;;;;9.45;1.77;;;18.70;54.90;;;;;;10416199;28;20041;-48
2022/05/30 15:50:06;;;;;;;5.20;1.67;;;18.70;53.40;;;;;;10415765;28;20032;-49
2022/05/30 16:00:29;;;;;;;6.03;1.73;;;18.70;52.90;;;;;;10413468;28;20041;-48
2022/05/30 16:05:30;;;;;;;4.05;1.73;;;18.70;52.40;;;;;;10426284;28;20033;-48
2022/05/30 16:10:31;;;;;;;9.32;2.10;;;18.70;51.80;;;;;;10402593;28;20567;-49
2022/05/30 16:15:31;;;;;;;8.85;1.85;;;18.70;53.30;;;;;;10405288;28;20119;-53
2022/05/30 16:20:32;;;;;;;8.95;1.50;;;18.80;53.40;;;;;;10417091;28;20091;-51
2022/05/30 16:25:35;;;;;;;9.50;2.50;;;18.90;53.60;;;;;;10416117;28;20043;-50
2022/05/30 16:30:36;;;;;;;12.50;1.92;;;18.80;53.50;;;;;;10413856;28;20032;-48
2022/05/30 16:35:37;;;;;;;9.52;1.95;;;18.70;52.80;;;;;;10414911;28;20046;-47
2022/05/30 16:40:38;;;;;;;8.02;1.88;;;18.70;52.80;;;;;;10415202;28;20047;-50
2022/05/30 16:45:38;;;;;;;13.27;2.65;;;18.80;53.60;;;;;;10425070;28;20038;-52
2022/05/30 16:50:39;;;;;;;9.20;1.73;;;18.80;53.80;;;;;;10413064;28;20104;-49
2022/05/30 16:55:40;;;;;;;14.43;2.40;;;18.70;54.60;;;;;;10414277;28;20087;-49
2022/05/30 17:00:41;;;;;;;8.18;3.30;;;18.70;55.40;;;;;;10414045;28;20032;-49
2022/05/30 17:05:46;;;;;;;11.77;2.38;;;18.70;55.80;;;;;;10412571;28;20029;-47
2022/05/30 17:10:47;;;;;;;23.48;3.50;;;18.60;56.00;;;;;;10416905;28;20033;-47
2022/05/30 17:15:51;;;;;;;10.02;2.35;;;18.60;56.40;;;;;;10412483;28;20041;-48
2022/05/30 17:20:52;;;;;;;11.82;2.65;;;18.60;56.70;;;;;;10427277;28;20401;-48
2022/05/30 17:25:56;;;;;;;15.13;3.22;;;18.60;57.10;;;;;;10412756;28;20120;-48
2022/05/30 17:31:02;;;;;;;16.00;3.03;;;18.60;57.70;;;;;;10412735;28;20466;-48
2022/05/30 17:36:03;;;;;;;15.10;2.83;;;18.70;57.60;;;;;;10412615;28;20509;-49
2022/05/30 17:41:05;;;;;;;15.27;2.92;;;18.80;58.40;;;;;;10412725;28;20540;-49
2022/05/30 17:46:20;;;;;;;9.15;2.40;;;18.80;58.50;;;;;;10420349;28;20060;-50
2022/05/30 17:51:35;;;;;;;12.52;2.42;;;18.70;58.70;;;;;;10412643;28;20040;-50
2022/05/30 17:56:42;;;;;;;11.10;2.35;;;18.70;59.10;;;;;;10412654;28;20040;-48
2022/05/30 18:01:42;;;;;;;16.17;3.70;;;18.60;59.30;;;;;;10411050;28;20033;-47
2022/05/30 18:07:08;;;;;;;17.40;2.90;;;18.60;59.40;;;;;;10412349;28;20365;-49
2022/05/30 18:12:59;;;;;;;11.13;2.13;;;18.60;59.60;;;;;;10410902;28;20489;-48
2022/05/30 18:24:29;;;;;;;4.90;1.58;;;18.60;59.40;;;;;;10410522;28;20535;-53
2022/05/30 18:29:30;;;;;;;13.10;2.03;;;18.60;59.50;;;;;;10411749;28;20021;-52
2022/05/30 18:35:07;;;;;;;8.75;2.08;;;18.60;59.60;;;;;;10408567;28;20033;-52
2022/05/30 18:40:15;;;;;;;7.22;1.90;;;18.60;59.80;;;;;;10410552;28;20486;-53
2022/05/30 18:45:27;;;;;;;8.18;1.60;;;18.60;59.90;;;;;;10426836;28;20087;-53
2022/05/30 18:50:28;;;;;;;7.07;1.95;;;18.60;59.90;;;;;;10410617;28;20363;-51
2022/05/30 18:55:29;;;;;;;5.97;1.60;;;18.60;59.90;;;;;;10416021;28;20410;-52
2022/05/30 19:00:34;;;;;;;5.03;1.88;;;18.60;60.00;;;;;;10418166;28;20084;-52
2022/05/30 19:05:35;;;;;;;5.95;2.35;;;18.70;60.10;;;;;;10414973;28;20034;-51
2022/05/30 19:10:57;;;;;;;5.18;1.35;;;18.70;60.10;;;;;;10417090;28;20033;-47
2022/05/30 19:21:21;;;;;;;6.28;1.38;;;18.70;60.30;;;;;;10425127;28;20045;-48
2022/05/30 19:26:22;;;;;;;4.72;1.60;;;18.70;60.30;;;;;;10423145;28;20075;-47
2022/05/30 19:31:24;;;;;;;5.88;1.88;;;18.70;60.30;;;;;;10432122;28;20455;-46
2022/05/30 19:36:25;;;;;;;7.85;1.75;;;18.70;60.60;;;;;;10415698;28;20124;-50
2022/05/30 19:41:26;;;;;;;5.22;1.20;;;18.60;60.40;;;;;;10415111;28;20026;-48
2022/05/30 19:46:32;;;;;;;4.72;1.20;;;18.60;60.60;;;;;;10426217;28;20025;-48
2022/05/30 19:51:33;;;;;;;4.20;1.23;;;18.60;60.60;;;;;;10414008;28;20029;-47
2022/05/30 19:56:39;;;;;;;2.63;1.40;;;18.60;60.50;;;;;;10413508;28;20067;-51
2022/05/30 20:01:41;;;;;;;17.52;2.65;;;18.60;60.50;;;;;;10423533;28;20116;-49
2022/05/30 20:06:42;;;;;;;6.00;1.20;;;18.50;60.40;;;;;;10412672;28;20034;-47
2022/05/30 20:11:43;;;;;;;2.72;1.27;;;18.50;60.40;;;;;;10413292;28;20036;-49
2022/05/30 20:16:45;;;;;;;3.20;1.08;;;18.50;60.40;;;;;;10413648;28;20065;-48
2022/05/30 20:21:49;;;;;;;4.55;1.30;;;18.50;60.40;;;;;;10413543;28;20048;-50
2022/05/30 20:26:50;;;;;;;2.97;1.10;;;18.50;60.40;;;;;;10413872;28;20083;-49
2022/05/30 20:31:52;;;;;;;3.72;1.33;;;18.50;60.40;;;;;;10414391;28;20136;-48
2022/05/30 20:36:53;;;;;;;3.28;1.42;;;18.50;60.40;;;;;;10430193;28;20486;-49
2022/05/30 20:47:13;;;;;;;3.33;1.33;;;18.50;60.40;;;;;;10414498;28;20041;-47
2022/05/30 20:52:14;;;;;;;2.83;1.08;;;18.50;60.40;;;;;;10413285;28;20030;-49
2022/05/30 20:57:15;;;;;;;3.78;1.00;;;18.50;60.30;;;;;;10412044;28;20029;-48
2022/05/30 21:02:15;;;;;;;2.80;1.02;;;18.50;60.30;;;;;;10413738;28;20063;-50
2022/05/30 21:07:16;;;;;;;3.35;0.70;;;18.50;60.30;;;;;;10413925;28;20057;-50
2022/05/30 21:12:17;;;;;;;3.60;1.02;;;18.50;60.30;;;;;;10413286;28;20034;-48
2022/05/30 21:17:58;;;;;;;3.00;1.15;;;18.40;60.20;;;;;;10412986;28;20087;-48
2022/05/30 21:22:59;;;;;;;2.80;1.13;;;18.50;60.30;;;;;;10396865;28;20053;-50
2022/05/30 21:28:01;;;;;;;4.13;0.80;;;18.50;60.20;;;;;;10428731;28;20373;-47
2022/05/30 21:33:43;;;;;;;2.08;0.90;;;18.50;60.20;;;;;;10412630;28;20120;-47
2022/05/30 21:38:44;;;;;;;2.22;1.00;;;18.40;60.20;;;;;;10412255;28;20037;-48
2022/05/30 21:43:45;;;;;;;2.55;0.90;;;18.40;60.20;;;;;;10412581;28;20033;-48
2022/05/30 21:48:46;;;;;;;2.38;1.42;;;18.40;60.20;;;;;;10412942;28;20037;-47
2022/05/30 21:53:46;;;;;;;1.25;0.82;;;18.40;60.20;;;;;;10412750;28;20088;-48
2022/05/30 21:58:51;;;;;;;2.40;0.90;;;18.40;60.30;;;;;;10412697;28;20038;-48
2022/05/30 22:03:52;;;;;;;2.63;1.17;;;18.40;60.30;;;;;;10411491;28;20079;-50
2022/05/30 22:08:54;;;;;;;1.85;0.85;;;18.40;60.20;;;;;;10412561;28;20075;-50
2022/05/30 22:13:55;;;;;;;1.63;1.17;;;18.40;60.30;;;;;;10411370;28;20040;-49
2022/05/30 22:18:57;;;;;;;1.95;0.80;;;18.40;60.20;;;;;;10413972;28;20069;-48
2022/05/30 22:23:58;;;;;;;2.15;0.80;;;18.40;60.20;;;;;;10412325;28;20025;-50
2022/05/30 22:28:59;;;;;;;2.05;0.75;;;18.40;60.20;;;;;;10415135;28;20099;-49
2022/05/30 22:34:00;;;;;;;1.17;0.57;;;18.40;60.20;;;;;;10418263;28;20049;-47
2022/05/30 22:39:01;;;;;;;1.45;0.73;;;18.40;60.30;;;;;;10419699;28;20034;-48
2022/05/30 22:44:02;;;;;;;1.40;0.93;;;18.40;60.20;;;;;;10419267;28;20048;-48
2022/05/30 22:49:02;;;;;;;1.80;0.80;;;18.40;60.30;;;;;;10419165;28;20037;-47
2022/05/30 22:54:05;;;;;;;2.15;1.02;;;18.40;60.30;;;;;;10419102;28;20108;-50
2022/05/30 22:59:06;;;;;;;2.00;1.00;;;18.40;60.30;;;;;;10419077;28;20029;-47
2022/05/30 23:04:07;;;;;;;2.42;0.80;;;18.40;60.30;;;;;;10418704;28;20502;-48
2022/05/30 23:09:08;;;;;;;1.85;0.82;;;18.30;60.20;;;;;;10417267;28;20493;-48
2022/05/30 23:14:25;;;;;;;2.58;0.90;;;18.40;60.30;;;;;;10404946;28;20378;-48
2022/05/30 23:19:39;;;;;;;1.00;0.65;;;18.40;60.30;;;;;;10407595;28;20120;-48
2022/05/30 23:24:40;;;;;;;2.53;0.98;;;18.40;60.30;;;;;;10417221;28;20032;-48
2022/05/30 23:29:41;;;;;;;1.27;0.63;;;18.30;60.30;;;;;;10417498;28;20044;-49
2022/05/30 23:34:42;;;;;;;1.20;0.60;;;18.30;60.30;;;;;;10417561;28;20041;-49
2022/05/30 23:39:43;;;;;;;1.90;0.70;;;18.30;60.30;;;;;;10416418;28;20065;-47
2022/05/30 23:44:44;;;;;;;1.08;0.63;;;18.30;60.30;;;;;;10417387;28;20080;-48
2022/05/30 23:49:49;;;;;;;1.85;0.75;;;18.30;60.30;;;;;;10415397;28;20049;-49
2022/05/30 23:54:51;;;;;;;1.67;0.68;;;18.30;60.30;;;;;;10432021;28;20026;-50
2022/05/30 23:59:52;;;;;;;1.63;0.93;;;18.30;60.30;;;;;;10416700;28;20040;-49
